Terminal Aerodrome Forecast
Issued by NWS Sioux Falls, SD

Home | Current Version | Previous Version | Text Only | Print | Product List | Glossary Off
Versions: 1 2 3 4 5 6 7 8 9 10 11 12 13 14 15 16 17 18 19 20 21 22 23 24 25 26

000
FTUS43 KFSD 291725
TAFFSD
TAF
KFSD 291725Z 2918/3018 08010KT P6SM BKN015
     FM292100 08012KT P6SM BKN025
     FM300400 09012KT P6SM OVC015
     FM301000 10012G16KT P6SM OVC010
     FM301600 12014G20KT 5SM SHRA OVC010=

USA.gov is the U.S. government's official web portal to all federal, state and local government web resources and services.